createdAt,value
2019-02-21T00:01:33.380Z,18.43
2019-02-21T00:04:03.458Z,15.80
2019-02-21T00:06:33.544Z,16.60
2019-02-21T00:09:04.895Z,17.23
2019-02-21T00:11:34.899Z,17.53
2019-02-21T00:14:04.879Z,16.93
2019-02-21T00:16:36.352Z,16.40
2019-02-21T00:19:06.323Z,18.60
2019-02-21T00:21:36.228Z,18.37
2019-02-21T00:24:06.265Z,16.43
2019-02-21T00:26:36.301Z,16.73
2019-02-21T00:29:06.401Z,17.50
2019-02-21T00:31:36.540Z,17.23
2019-02-21T00:34:06.491Z,17.00
2019-02-21T00:36:36.423Z,16.80
2019-02-21T00:39:07.099Z,18.13
2019-02-21T00:41:37.010Z,16.03
2019-02-21T00:44:07.027Z,16.80
2019-02-21T00:46:37.019Z,18.30
2019-02-21T00:49:07.039Z,17.63
2019-02-21T00:51:37.045Z,17.23
2019-02-21T00:54:07.027Z,17.47
2019-02-21T00:56:36.956Z,17.60
2019-02-21T00:59:07.063Z,19.30
2019-02-21T01:01:37.101Z,17.90
2019-02-21T01:04:07.271Z,16.50
2019-02-21T01:06:37.182Z,17.60
2019-02-21T01:09:07.282Z,16.00
2019-02-21T01:11:37.362Z,14.20
2019-02-21T01:14:07.825Z,14.07
2019-02-21T01:16:37.808Z,13.77
2019-02-21T01:19:07.835Z,13.47
2019-02-21T01:21:39.726Z,12.77
2019-02-21T01:24:09.480Z,13.23
2019-02-21T01:26:39.399Z,14.03
2019-02-21T01:29:09.389Z,13.50
2019-02-21T01:31:39.330Z,13.03
2019-02-21T01:34:09.259Z,13.87
2019-02-21T01:36:39.277Z,13.90
2019-02-21T01:39:09.364Z,14.03
2019-02-21T01:41:39.374Z,14.47
2019-02-21T01:44:09.394Z,14.03
2019-02-21T01:46:39.417Z,13.73
2019-02-21T01:49:09.611Z,15.47
2019-02-21T01:51:39.523Z,13.73
2019-02-21T01:54:09.725Z,13.30
2019-02-21T01:56:39.712Z,14.50
2019-02-21T01:59:09.716Z,14.10
2019-02-21T02:01:39.655Z,14.37
2019-02-21T02:04:09.614Z,13.60
2019-02-21T02:06:39.744Z,14.83
2019-02-21T02:09:12.387Z,14.53
2019-02-21T02:11:42.312Z,13.13
2019-02-21T02:14:12.301Z,13.10
2019-02-21T02:16:42.401Z,13.87
2019-02-21T02:19:12.395Z,12.97
2019-02-21T02:21:42.297Z,14.27
2019-02-21T02:24:14.738Z,13.90
2019-02-21T02:26:44.162Z,14.73
2019-02-21T02:29:14.153Z,15.90
2019-02-21T02:31:44.092Z,14.97
2019-02-21T02:34:14.117Z,13.73
2019-02-21T02:36:44.041Z,14.13
2019-02-21T02:39:14.234Z,15.10
2019-02-21T02:41:44.149Z,14.00
2019-02-21T02:44:14.182Z,16.30
2019-02-21T02:46:44.138Z,16.53
2019-02-21T02:49:14.069Z,16.33
2019-02-21T02:51:44.025Z,16.77
2019-02-21T02:54:13.933Z,16.67
2019-02-21T02:56:43.927Z,16.40
2019-02-21T02:59:13.832Z,15.70
2019-02-21T03:01:43.775Z,15.43
2019-02-21T03:04:13.714Z,15.70
2019-02-21T03:06:43.680Z,16.13
2019-02-21T03:09:13.749Z,16.80
2019-02-21T03:11:43.762Z,16.73
2019-02-21T03:14:13.685Z,14.87
2019-02-21T03:16:43.696Z,16.30
2019-02-21T03:19:13.611Z,16.17
2019-02-21T03:21:43.608Z,16.00
2019-02-21T03:24:13.805Z,16.60
2019-02-21T03:26:43.853Z,16.00
2019-02-21T03:29:13.824Z,17.10
2019-02-21T03:31:54.409Z,16.37
2019-02-21T03:34:15.304Z,15.93
2019-02-21T03:36:45.215Z,17.03
2019-02-21T03:39:15.225Z,15.93
2019-02-21T03:41:45.199Z,17.43
2019-02-21T03:44:15.042Z,14.93
2019-02-21T03:46:45.048Z,14.60
2019-02-21T03:49:14.979Z,17.13
2019-02-21T03:51:44.975Z,17.60
2019-02-21T03:54:14.892Z,17.00
2019-02-21T03:56:44.904Z,17.70
2019-02-21T03:59:14.804Z,19.80
2019-02-21T04:01:44.905Z,16.90
2019-02-21T04:04:14.882Z,17.83
2019-02-21T04:06:44.798Z,18.63
2019-02-21T04:09:14.784Z,17.00
2019-02-21T04:11:44.704Z,17.97
2019-02-21T04:14:14.860Z,17.80
2019-02-21T04:16:44.873Z,17.60
2019-02-21T04:19:14.837Z,16.93
2019-02-21T04:21:44.828Z,17.63
2019-02-21T04:24:14.774Z,17.67
2019-02-21T04:26:44.707Z,18.27
2019-02-21T04:29:14.675Z,18.00
2019-02-21T04:31:44.618Z,19.67
2019-02-21T04:34:14.630Z,16.17
2019-02-21T04:36:44.568Z,17.67
2019-02-21T04:39:14.484Z,17.10
2019-02-21T04:41:44.429Z,17.97
2019-02-21T04:44:14.336Z,16.80
2019-02-21T04:46:44.304Z,17.80
2019-02-21T04:49:14.202Z,16.37
2019-02-21T04:51:44.125Z,17.40
2019-02-21T04:54:14.204Z,17.93
2019-02-21T04:56:44.139Z,19.00
2019-02-21T04:59:14.055Z,17.50
2019-02-21T05:01:43.979Z,16.63
2019-02-21T05:04:13.894Z,17.43
2019-02-21T05:06:43.829Z,19.50
2019-02-21T05:09:13.824Z,19.13
2019-02-21T05:11:43.753Z,18.30
2019-02-21T05:14:13.652Z,17.53
2019-02-21T05:16:44.687Z,17.73
2019-02-21T05:19:14.830Z,17.70
2019-02-21T05:21:44.955Z,17.73
2019-02-21T05:24:14.907Z,18.83
2019-02-21T05:26:48.673Z,19.43
2019-02-21T05:29:18.593Z,18.87
2019-02-21T05:32:23.040Z,19.40
2019-02-21T05:34:59.210Z,20.00
2019-02-21T05:37:54.310Z,19.40
2019-02-21T05:40:46.096Z,18.43
2019-02-21T05:43:39.052Z,19.70
2019-02-21T05:46:26.267Z,17.70
2019-02-21T05:49:18.407Z,18.57
2019-02-21T05:51:53.227Z,18.00
2019-02-21T05:54:52.661Z,17.87
2019-02-21T05:57:38.277Z,19.90
2019-02-21T06:00:26.180Z,19.80
2019-02-21T06:03:03.177Z,18.10
2019-02-21T06:05:58.489Z,19.10
2019-02-21T06:08:53.315Z,18.90
2019-02-21T06:11:31.060Z,19.57
2019-02-21T06:14:38.428Z,17.03
2019-02-21T06:17:36.238Z,17.40
2019-02-21T06:20:23.788Z,18.97
2019-02-21T06:23:27.800Z,18.60
2019-02-21T06:26:16.909Z,18.43
2019-02-21T06:28:53.486Z,17.80
2019-02-21T06:31:23.324Z,18.20
2019-02-21T06:33:53.261Z,19.27
2019-02-21T06:36:23.169Z,18.13
2019-02-21T06:38:53.178Z,19.70
2019-02-21T06:41:23.384Z,18.77
2019-02-21T06:43:53.306Z,19.37
2019-02-21T06:46:23.261Z,17.57
2019-02-21T06:48:53.201Z,20.17
2019-02-21T06:51:23.096Z,17.57
2019-02-21T06:53:53.303Z,18.97
2019-02-21T06:56:23.303Z,18.77
2019-02-21T06:58:53.239Z,18.97
2019-02-21T07:01:28.958Z,19.90
2019-02-21T07:03:56.861Z,18.70
2019-02-21T07:06:31.998Z,17.73
2019-02-21T07:09:00.041Z,18.43
2019-02-21T07:11:30.113Z,17.80
2019-02-21T07:14:00.066Z,19.50
2019-02-21T07:16:30.006Z,18.90
2019-02-21T07:18:59.936Z,17.97
2019-02-21T07:21:29.845Z,18.67
2019-02-21T07:23:59.887Z,18.70
2019-02-21T07:26:32.292Z,18.30
2019-02-21T07:29:02.245Z,19.53
2019-02-21T07:31:32.770Z,19.80
2019-02-21T07:34:02.797Z,19.40
2019-02-21T07:36:32.726Z,18.87
2019-02-21T07:39:16.526Z,18.77
2019-02-21T07:41:35.462Z,19.40
2019-02-21T07:44:12.055Z,18.73
2019-02-21T07:46:36.987Z,18.33
2019-02-21T07:49:11.444Z,17.67
2019-02-21T07:51:43.341Z,19.50
2019-02-21T07:54:15.213Z,17.20
2019-02-21T07:56:45.443Z,19.03
2019-02-21T07:59:15.372Z,19.30
2019-02-21T08:01:45.364Z,19.27
2019-02-21T08:04:15.243Z,18.90
2019-02-21T08:06:45.240Z,19.23
2019-02-21T08:09:15.205Z,19.30
2019-02-21T08:11:45.205Z,19.80
2019-02-21T08:14:16.151Z,17.97
2019-02-21T08:16:46.480Z,17.43
2019-02-21T08:19:16.509Z,18.60
2019-02-21T08:21:46.637Z,17.63
2019-02-21T08:24:16.735Z,16.60
2019-02-21T08:26:46.913Z,19.30
2019-02-21T08:29:16.985Z,20.27
2019-02-21T08:31:47.000Z,18.20
2019-02-21T08:34:20.904Z,18.33
2019-02-21T08:36:50.841Z,17.83
2019-02-21T08:39:20.733Z,18.30
2019-02-21T08:41:50.736Z,18.50
2019-02-21T08:44:20.643Z,19.20
2019-02-21T08:46:53.313Z,19.80
2019-02-21T08:49:22.095Z,18.17
2019-02-21T08:51:52.029Z,19.20
2019-02-21T08:54:21.970Z,18.20
2019-02-21T08:56:51.965Z,20.30
2019-02-21T08:59:21.879Z,18.63
2019-02-21T09:01:51.860Z,18.80
2019-02-21T09:04:27.302Z,20.33
2019-02-21T09:06:53.583Z,20.13
2019-02-21T09:09:23.478Z,19.33
2019-02-21T09:11:53.941Z,20.30
2019-02-21T09:14:23.629Z,19.20
2019-02-21T09:16:53.552Z,18.53
2019-02-21T09:19:23.586Z,19.70
2019-02-21T09:21:53.676Z,19.33
2019-02-21T09:24:37.756Z,19.87
2019-02-21T09:26:57.362Z,19.07
2019-02-21T09:29:26.828Z,19.30
2019-02-21T09:31:56.768Z,18.60
2019-02-21T09:34:26.772Z,21.27
2019-02-21T09:36:56.677Z,19.57
2019-02-21T09:39:27.561Z,19.00
2019-02-21T09:41:57.487Z,19.43
2019-02-21T09:44:27.743Z,19.20
2019-02-21T09:46:57.663Z,20.30
2019-02-21T09:49:27.811Z,18.83
2019-02-21T09:51:57.760Z,19.33
2019-02-21T09:54:27.679Z,17.30
2019-02-21T09:56:57.635Z,19.30
2019-02-21T09:59:28.855Z,19.93
2019-02-21T10:01:58.933Z,18.73
2019-02-21T10:04:32.219Z,20.00
2019-02-21T10:07:00.466Z,19.87
2019-02-21T10:09:30.360Z,19.93
2019-02-21T10:12:00.371Z,18.70
2019-02-21T10:14:30.280Z,18.00
2019-02-21T10:17:00.215Z,18.60
2019-02-21T10:19:30.283Z,18.03
2019-02-21T10:22:00.226Z,18.50
2019-02-21T10:24:30.227Z,18.50
2019-02-21T10:27:00.156Z,20.40
2019-02-21T10:29:30.148Z,18.30
2019-02-21T10:32:00.160Z,18.40
2019-02-21T10:34:43.462Z,18.70
2019-02-21T10:37:13.729Z,17.67
2019-02-21T10:39:43.671Z,18.67
2019-02-21T10:42:13.671Z,17.60
2019-02-21T10:44:43.719Z,17.17
2019-02-21T10:47:13.737Z,18.10
2019-02-21T10:49:43.685Z,19.90
2019-02-21T10:52:13.613Z,16.83
2019-02-21T10:54:43.610Z,17.87
2019-02-21T10:57:13.619Z,18.50
2019-02-21T10:59:46.688Z,16.03
2019-02-21T11:02:15.187Z,15.27
2019-02-21T11:04:54.430Z,15.43
2019-02-21T11:07:16.650Z,15.50
2019-02-21T11:09:46.636Z,16.73
2019-02-21T11:12:16.600Z,15.90
2019-02-21T11:14:47.822Z,16.00
2019-02-21T11:17:17.893Z,14.50
2019-02-21T11:19:47.837Z,14.63
2019-02-21T11:22:17.855Z,14.50
2019-02-21T11:24:47.885Z,14.27
2019-02-21T11:27:17.823Z,15.67
2019-02-21T11:29:47.844Z,14.73
2019-02-21T11:32:17.824Z,15.07
2019-02-21T11:34:47.802Z,15.00
2019-02-21T11:37:17.733Z,14.17
2019-02-21T11:39:47.850Z,12.93
2019-02-21T11:42:17.756Z,13.40
2019-02-21T11:44:47.763Z,13.13
2019-02-21T11:47:17.683Z,12.80
2019-02-21T11:49:47.673Z,13.03
2019-02-21T11:52:17.583Z,13.27
2019-02-21T11:54:47.517Z,15.23
2019-02-21T11:57:17.473Z,14.70
2019-02-21T11:59:47.550Z,15.03
2019-02-21T12:02:17.528Z,13.40
2019-02-21T12:04:47.479Z,14.80
2019-02-21T12:07:17.469Z,13.60
2019-02-21T12:09:47.414Z,14.50
2019-02-21T12:12:17.427Z,14.17
2019-02-21T12:14:47.402Z,15.77
2019-02-21T12:17:17.408Z,15.57
2019-02-21T12:19:47.396Z,16.50
2019-02-21T12:22:17.386Z,17.23
2019-02-21T12:24:47.470Z,17.50
2019-02-21T12:27:17.386Z,16.27
2019-02-21T12:29:47.421Z,18.03
2019-02-21T12:32:17.506Z,17.77
2019-02-21T12:34:47.441Z,18.30
2019-02-21T12:37:17.521Z,17.80
2019-02-21T12:39:47.471Z,17.80
2019-02-21T12:42:17.655Z,18.90
2019-02-21T12:44:47.941Z,17.77
2019-02-21T12:47:18.149Z,19.27
2019-02-21T12:49:48.221Z,19.90
2019-02-21T12:52:18.269Z,20.00
2019-02-21T12:54:48.193Z,20.50
2019-02-21T12:57:18.183Z,19.70
2019-02-21T12:59:48.200Z,21.40
2019-02-21T13:02:18.207Z,20.00
2019-02-21T13:04:48.290Z,20.90
2019-02-21T13:07:18.300Z,20.53
2019-02-21T13:09:48.260Z,21.50
2019-02-21T13:12:18.279Z,21.30
2019-02-21T13:14:48.228Z,21.17
2019-02-21T13:17:18.302Z,22.03
2019-02-21T13:19:48.303Z,20.10
2019-02-21T13:22:18.230Z,20.37
2019-02-21T13:24:48.325Z,20.53
2019-02-21T13:27:18.332Z,20.03
2019-02-21T13:29:48.359Z,19.70
2019-02-21T13:32:18.338Z,18.80
2019-02-21T13:34:48.383Z,20.77
2019-02-21T13:37:28.121Z,19.70
2019-02-21T13:39:50.056Z,19.93
2019-02-21T13:42:19.971Z,20.53
2019-02-21T13:44:49.881Z,18.87
2019-02-21T13:47:19.899Z,19.53
2019-02-21T13:49:49.908Z,18.70
2019-02-21T13:52:19.853Z,20.00
2019-02-21T13:54:49.811Z,19.73
2019-02-21T13:57:19.741Z,20.10
2019-02-21T13:59:49.660Z,19.20
2019-02-21T14:02:19.568Z,18.70
2019-02-21T14:04:49.539Z,18.70
2019-02-21T14:07:19.451Z,16.70
2019-02-21T14:09:49.426Z,18.20
2019-02-21T14:12:19.465Z,16.63
2019-02-21T14:14:49.493Z,17.07
2019-02-21T14:17:19.429Z,16.63
2019-02-21T14:19:49.323Z,18.10
2019-02-21T14:22:19.342Z,18.80
2019-02-21T14:24:49.311Z,20.17
2019-02-21T14:27:19.352Z,19.03
2019-02-21T14:29:49.279Z,18.60
2019-02-21T14:32:19.968Z,18.77
2019-02-21T14:34:49.820Z,20.23
2019-02-21T14:37:19.802Z,20.10
2019-02-21T14:39:49.720Z,19.43
2019-02-21T14:42:19.818Z,20.77
2019-02-21T14:44:49.800Z,22.47
2019-02-21T14:47:19.827Z,21.03
2019-02-21T14:49:50.098Z,21.70
2019-02-21T14:52:20.353Z,20.63
2019-02-21T14:54:50.351Z,21.47
2019-02-21T14:57:20.390Z,22.13
2019-02-21T14:59:50.469Z,22.40
2019-02-21T15:02:20.527Z,23.50
2019-02-21T15:04:50.526Z,22.80
2019-02-21T15:07:20.458Z,23.80
2019-02-21T15:09:50.394Z,26.33
2019-02-21T15:12:20.487Z,23.30
2019-02-21T15:14:50.487Z,23.70
2019-02-21T15:17:20.411Z,24.63
2019-02-21T15:19:50.316Z,24.97
2019-02-21T15:22:20.398Z,25.10
2019-02-21T15:24:50.420Z,24.63
2019-02-21T15:27:20.413Z,24.60
2019-02-21T15:29:50.326Z,23.33
2019-02-21T15:32:20.355Z,26.23
2019-02-21T15:34:50.301Z,24.87
2019-02-21T15:37:20.243Z,25.37
2019-02-21T15:39:50.314Z,24.63
2019-02-21T15:42:20.943Z,23.63
2019-02-21T15:44:50.854Z,25.03
2019-02-21T15:47:20.819Z,24.73
2019-02-21T15:49:50.788Z,24.80
2019-02-21T15:52:22.507Z,24.67
2019-02-21T15:54:52.371Z,20.80
2019-02-21T15:57:22.378Z,19.67
2019-02-21T15:59:52.373Z,18.17
2019-02-21T16:02:22.430Z,19.20
2019-02-21T16:04:52.322Z,17.50
2019-02-21T16:07:22.331Z,18.33
2019-02-21T16:09:52.273Z,15.80
2019-02-21T16:12:22.500Z,16.47
2019-02-21T16:14:52.950Z,15.80
2019-02-21T16:17:22.953Z,16.27
2019-02-21T16:19:52.932Z,14.20
2019-02-21T16:22:22.860Z,15.83
2019-02-21T16:24:52.890Z,15.30
2019-02-21T16:27:22.901Z,15.80
2019-02-21T16:29:52.877Z,17.20
2019-02-21T16:32:22.813Z,15.97
2019-02-21T16:34:52.842Z,15.90
2019-02-21T16:37:22.757Z,14.63
2019-02-21T16:39:52.699Z,16.20
2019-02-21T16:42:22.646Z,15.70
2019-02-21T16:44:52.540Z,17.33
2019-02-21T16:47:22.672Z,16.67
2019-02-21T16:49:52.584Z,16.17
2019-02-21T16:52:22.602Z,17.87
2019-02-21T16:54:52.504Z,17.40
2019-02-21T16:57:22.428Z,16.77
2019-02-21T16:59:52.481Z,16.90
2019-02-21T17:02:22.499Z,17.70
2019-02-21T17:04:52.481Z,18.27
2019-02-21T17:07:22.617Z,17.87
2019-02-21T17:09:52.540Z,17.20
2019-02-21T17:12:22.701Z,19.67
2019-02-21T17:14:52.608Z,18.43
2019-02-21T17:17:22.586Z,18.67
2019-02-21T17:19:52.526Z,19.32
2019-02-21T17:22:23.629Z,20.13
2019-02-21T17:24:53.851Z,17.80
2019-02-21T17:27:23.720Z,19.60
2019-02-21T17:29:53.663Z,19.60
2019-02-21T17:32:23.591Z,19.03
2019-02-21T17:34:54.099Z,19.90
2019-02-21T17:37:25.192Z,20.87
2019-02-21T17:39:57.656Z,20.00
2019-02-21T17:42:27.831Z,19.93
2019-02-21T17:44:57.800Z,21.17
2019-02-21T17:47:27.716Z,19.57
2019-02-21T17:49:57.647Z,19.67
2019-02-21T17:52:27.733Z,19.97
2019-02-21T17:54:57.680Z,21.03
2019-02-21T17:57:27.807Z,19.50
2019-02-21T17:59:57.813Z,23.10
2019-02-21T18:02:27.916Z,22.50
2019-02-21T18:04:57.824Z,21.70
2019-02-21T18:07:36.011Z,21.93
2019-02-21T18:09:59.355Z,22.17
2019-02-21T18:12:29.348Z,22.30
2019-02-21T18:14:59.359Z,22.50
2019-02-21T18:17:29.389Z,20.87
2019-02-21T18:19:59.310Z,22.17
2019-02-21T18:22:29.228Z,21.90
2019-02-21T18:24:59.261Z,20.57
2019-02-21T18:27:29.181Z,21.60
2019-02-21T18:29:59.142Z,21.80
2019-02-21T18:32:29.083Z,21.73
2019-02-21T18:34:59.109Z,22.90
2019-02-21T18:37:29.019Z,23.93
2019-02-21T18:39:59.157Z,21.93
2019-02-21T18:42:29.080Z,21.77
2019-02-21T18:44:59.094Z,22.90
2019-02-21T18:47:29.020Z,23.03
2019-02-21T18:49:59.016Z,22.50
2019-02-21T18:52:29.412Z,20.47
2019-02-21T18:54:59.438Z,21.40
2019-02-21T18:57:29.606Z,22.73
2019-02-21T18:59:59.598Z,24.05
2019-02-21T19:02:29.618Z,23.63
2019-02-21T19:04:59.640Z,23.97
2019-02-21T19:07:29.628Z,23.20
2019-02-21T19:09:59.616Z,23.03
2019-02-21T19:12:29.645Z,23.67
2019-02-21T19:14:59.588Z,22.57
2019-02-21T19:17:29.584Z,22.60
2019-02-21T19:19:59.780Z,22.00
2019-02-21T19:22:29.891Z,21.60
2019-02-21T19:25:00.010Z,22.27
2019-02-21T19:27:36.918Z,23.80
2019-02-21T19:30:01.544Z,23.23
2019-02-21T19:32:31.521Z,22.00
2019-02-21T19:35:01.462Z,21.30
2019-02-21T19:37:31.551Z,23.87
2019-02-21T19:40:01.553Z,21.53
2019-02-21T19:42:31.622Z,23.10
2019-02-21T19:45:01.553Z,22.87
2019-02-21T19:47:31.556Z,20.50
2019-02-21T19:50:01.594Z,22.20
2019-02-21T19:52:32.090Z,23.33
2019-02-21T19:55:02.339Z,21.97
2019-02-21T19:57:32.259Z,22.10
2019-02-21T20:00:02.254Z,22.40
2019-02-21T20:02:32.265Z,21.00
2019-02-21T20:05:02.850Z,22.83
2019-02-21T20:07:32.730Z,20.57
2019-02-21T20:10:02.730Z,21.07
2019-02-21T20:12:32.747Z,20.47
2019-02-21T20:15:02.703Z,20.60
2019-02-21T20:17:32.645Z,20.63
2019-02-21T20:20:02.678Z,20.10
2019-02-21T20:22:32.604Z,19.60
2019-02-21T20:25:02.613Z,19.30
2019-02-21T20:27:32.545Z,19.90
2019-02-21T20:30:02.629Z,19.23
2019-02-21T20:32:32.557Z,21.50
2019-02-21T20:35:02.483Z,19.87
2019-02-21T20:37:32.395Z,21.03
2019-02-21T20:40:02.306Z,19.83
2019-02-21T20:42:32.272Z,19.90
2019-02-21T20:45:02.341Z,20.73
2019-02-21T20:47:32.264Z,21.67
2019-02-21T20:50:02.313Z,22.43
2019-02-21T20:52:32.393Z,23.83
2019-02-21T20:55:02.336Z,22.93
2019-02-21T20:57:32.269Z,23.67
2019-02-21T21:00:02.210Z,23.97
2019-02-21T21:02:32.197Z,25.37
2019-02-21T21:05:02.153Z,25.23
2019-02-21T21:07:32.622Z,24.87
2019-02-21T21:10:02.658Z,25.97
2019-02-21T21:12:32.644Z,27.50
2019-02-21T21:15:02.552Z,26.90
2019-02-21T21:17:32.584Z,30.90
2019-02-21T21:20:02.483Z,27.60
2019-02-21T21:22:32.603Z,26.60
2019-02-21T21:25:02.605Z,28.10
2019-02-21T21:27:32.844Z,27.30
2019-02-21T21:30:02.791Z,29.53
2019-02-21T21:32:32.745Z,29.77
2019-02-21T21:35:02.647Z,29.30
2019-02-21T21:37:32.568Z,28.60
2019-02-21T21:40:02.572Z,28.53
2019-02-21T21:42:32.596Z,29.23
2019-02-21T21:45:02.585Z,29.90
2019-02-21T21:47:32.555Z,29.57
2019-02-21T21:50:02.691Z,29.20
2019-02-21T21:52:32.631Z,28.87
2019-02-21T21:55:02.682Z,27.03
2019-02-21T21:57:32.714Z,29.43
2019-02-21T22:00:02.701Z,29.13
2019-02-21T22:02:32.713Z,32.47
2019-02-21T22:05:02.793Z,29.57
2019-02-21T22:07:32.804Z,29.67
2019-02-21T22:10:02.791Z,28.47
2019-02-21T22:12:32.734Z,29.60
2019-02-21T22:15:02.655Z,31.73
2019-02-21T22:17:32.679Z,30.57
2019-02-21T22:20:02.591Z,29.30
2019-02-21T22:22:32.628Z,30.80
2019-02-21T22:25:02.606Z,30.03
2019-02-21T22:27:32.545Z,28.67
2019-02-21T22:30:02.571Z,30.07
2019-02-21T22:32:32.483Z,30.83
2019-02-21T22:35:02.396Z,29.77
2019-02-21T22:37:32.401Z,30.70
2019-02-21T22:40:02.468Z,30.57
2019-02-21T22:42:32.453Z,30.67
2019-02-21T22:45:02.364Z,31.23
2019-02-21T22:47:32.326Z,32.20
2019-02-21T22:50:02.251Z,33.03
2019-02-21T22:52:32.183Z,32.17
2019-02-21T22:55:09.883Z,31.90
2019-02-21T22:57:33.908Z,31.10
2019-02-21T23:00:05.995Z,31.40
2019-02-21T23:02:35.909Z,31.57
2019-02-21T23:05:38.306Z,31.60
2019-02-21T23:08:50.845Z,31.17
2019-02-21T23:11:20.935Z,30.37
2019-02-21T23:13:51.266Z,32.90
2019-02-21T23:16:21.253Z,33.03
2019-02-21T23:18:51.164Z,30.60
2019-02-21T23:21:20.648Z,31.00
2019-02-21T23:23:50.766Z,33.90
2019-02-21T23:26:20.745Z,30.53
2019-02-21T23:28:50.696Z,28.77
2019-02-21T23:31:21.052Z,28.83
2019-02-21T23:33:54.557Z,30.17
2019-02-21T23:36:24.464Z,30.50
2019-02-21T23:38:54.562Z,28.53
2019-02-21T23:41:24.565Z,28.67
2019-02-21T23:43:54.487Z,31.40
2019-02-21T23:46:24.491Z,30.17
2019-02-21T23:48:54.430Z,30.73
2019-02-21T23:51:24.332Z,27.50
2019-02-21T23:54:02.705Z,27.00
2019-02-21T23:56:25.935Z,27.50
2019-02-21T23:58:55.974Z,24.70
